createdAt,value
2019-04-27T00:01:48.464Z,83.35
2019-04-27T00:04:48.647Z,83.17
2019-04-27T00:07:38.698Z,82.97
2019-04-27T00:10:47.135Z,83.18
2019-04-27T00:13:22.962Z,83.44
2019-04-27T00:16:13.708Z,83.26
2019-04-27T00:19:13.609Z,83.05
2019-04-27T00:22:00.633Z,83.16
2019-04-27T00:24:38.761Z,82.98
2019-04-27T00:27:13.911Z,83.18
2019-04-27T00:29:48.962Z,83.36
2019-04-27T00:32:24.191Z,83.16
2019-04-27T00:34:59.279Z,83.11
2019-04-27T00:37:53.144Z,82.97
2019-04-27T00:40:37.549Z,83.05
2019-04-27T00:43:14.094Z,83.12
2019-04-27T00:45:49.190Z,82.69
2019-04-27T00:48:24.184Z,82.96
2019-04-27T00:50:59.265Z,82.73
2019-04-27T00:53:35.316Z,82.90
2019-04-27T00:56:29.234Z,82.82
2019-04-27T00:59:33.048Z,82.92
2019-04-27T01:02:23.955Z,82.53
2019-04-27T01:04:59.031Z,82.76
2019-04-27T01:07:34.770Z,82.88
2019-04-27T01:10:09.869Z,83.01
2019-04-27T01:12:45.323Z,82.83
2019-04-27T01:15:20.422Z,82.88
2019-04-27T01:18:11.118Z,82.81
2019-04-27T01:20:32.768Z,82.77
2019-04-27T01:23:08.932Z,82.73
2019-04-27T01:26:12.533Z,82.71
2019-04-27T01:28:53.795Z,82.66
2019-04-27T01:31:29.412Z,82.80
2019-04-27T01:34:04.409Z,82.94
2019-04-27T01:36:39.397Z,83.03
2019-04-27T01:39:16.083Z,82.97
2019-04-27T01:41:51.069Z,83.16
2019-04-27T01:44:26.069Z,83.14
2019-04-27T01:47:01.107Z,83.02
2019-04-27T01:49:36.069Z,83.16
2019-04-27T01:52:11.078Z,83.39
2019-04-27T01:54:46.058Z,83.39
2019-04-27T01:57:21.360Z,83.47
2019-04-27T01:59:56.335Z,83.59
2019-04-27T02:02:39.242Z,83.62
2019-04-27T02:05:49.280Z,83.60
2019-04-27T02:08:24.370Z,83.60
2019-04-27T02:10:59.516Z,83.48
2019-04-27T02:13:34.764Z,83.57
2019-04-27T02:16:09.851Z,83.70
2019-04-27T02:18:44.826Z,83.61
2019-04-27T02:21:19.922Z,83.45
2019-04-27T02:23:54.890Z,83.50
2019-04-27T02:26:30.068Z,83.36
2019-04-27T02:29:30.878Z,83.27
2019-04-27T02:32:33.817Z,83.10
2019-04-27T02:35:14.994Z,82.94
2019-04-27T02:37:51.727Z,83.14
2019-04-27T02:40:55.946Z,83.26
2019-04-27T02:43:40.753Z,83.66
2019-04-27T02:46:15.814Z,83.61
2019-04-27T02:49:00.060Z,83.39
2019-04-27T02:51:46.082Z,83.25
2019-04-27T02:54:21.343Z,83.02
2019-04-27T02:56:56.348Z,83.46
2019-04-27T02:59:32.042Z,83.31
2019-04-27T03:02:12.748Z,83.15
2019-04-27T03:04:49.847Z,83.52
2019-04-27T03:07:24.431Z,83.41
2019-04-27T03:10:05.535Z,83.47
2019-04-27T03:12:47.228Z,83.63
2019-04-27T03:15:30.674Z,83.18
2019-04-27T03:18:32.854Z,83.16
2019-04-27T03:21:13.218Z,83.54
2019-04-27T03:23:49.948Z,83.07
2019-04-27T03:27:00.458Z,83.14
2019-04-27T03:29:34.923Z,83.33
2019-04-27T03:32:12.653Z,83.09
2019-04-27T03:34:46.661Z,83.29
2019-04-27T03:37:22.002Z,83.23
2019-04-27T03:39:59.931Z,83.94
2019-04-27T03:42:37.373Z,84.00
2019-04-27T03:45:12.606Z,84.15
2019-04-27T03:47:50.540Z,83.95
2019-04-27T03:50:33.400Z,84.01
2019-04-27T03:53:29.709Z,83.76
2019-04-27T03:56:17.249Z,83.54
2019-04-27T03:58:55.851Z,83.67
2019-04-27T04:01:30.821Z,83.75
2019-04-27T04:04:05.895Z,83.70
2019-04-27T04:06:40.878Z,83.49
2019-04-27T04:09:16.505Z,83.40
2019-04-27T04:12:02.251Z,83.12
2019-04-27T04:14:42.477Z,83.23
2019-04-27T04:17:20.535Z,83.27
2019-04-27T04:20:00.338Z,83.00
2019-04-27T04:22:34.649Z,83.08
2019-04-27T04:25:10.943Z,82.94
2019-04-27T04:27:46.893Z,82.71
2019-04-27T04:30:23.217Z,82.78
2019-04-27T04:32:59.941Z,82.79
2019-04-27T04:35:35.276Z,82.52
2019-04-27T04:38:10.640Z,82.47
2019-04-27T04:40:51.705Z,82.50
2019-04-27T04:43:35.531Z,82.94
2019-04-27T04:46:29.815Z,83.12
2019-04-27T04:49:05.475Z,82.79
2019-04-27T04:51:40.486Z,82.71
2019-04-27T04:54:15.494Z,82.67
2019-04-27T04:56:50.461Z,82.68
2019-04-27T05:00:00.351Z,82.38
2019-04-27T05:02:39.593Z,82.19
2019-04-27T05:05:15.299Z,82.40
2019-04-27T05:07:51.035Z,82.16
2019-04-27T05:10:31.266Z,81.84
2019-04-27T05:13:06.503Z,82.00
2019-04-27T05:15:41.707Z,81.85
2019-04-27T05:18:16.677Z,81.71
2019-04-27T05:20:58.587Z,81.89
2019-04-27T05:23:34.114Z,81.92
2019-04-27T05:26:09.293Z,82.06
2019-04-27T05:28:44.478Z,81.94
2019-04-27T05:31:19.601Z,81.35
2019-04-27T05:33:54.581Z,81.54
2019-04-27T05:36:48.552Z,80.87
2019-04-27T05:39:24.876Z,79.77
2019-04-27T05:41:59.723Z,78.98
2019-04-27T05:45:19.937Z,79.53
2019-04-27T05:48:13.562Z,79.05
2019-04-27T05:50:51.536Z,78.39
2019-04-27T05:53:25.290Z,78.56
2019-04-27T05:56:00.281Z,78.33
2019-04-27T05:58:35.439Z,77.76
2019-04-27T06:01:11.312Z,77.00
2019-04-27T06:03:46.594Z,76.82
2019-04-27T06:06:24.722Z,76.86
2019-04-27T06:08:59.689Z,76.95
2019-04-27T06:11:35.231Z,76.22
2019-04-27T06:14:10.223Z,76.24
2019-04-27T06:16:45.324Z,76.32
2019-04-27T06:19:20.283Z,75.77
2019-04-27T06:21:56.315Z,76.10
2019-04-27T06:24:31.393Z,76.15
2019-04-27T06:27:09.279Z,76.36
2019-04-27T06:29:44.386Z,75.99
2019-04-27T06:32:19.383Z,75.53
2019-04-27T06:34:54.348Z,75.00
2019-04-27T06:37:29.640Z,74.21
2019-04-27T06:40:05.292Z,75.30
2019-04-27T06:42:40.279Z,74.41
2019-04-27T06:45:15.563Z,74.04
2019-04-27T06:47:51.471Z,73.43
2019-04-27T06:50:26.538Z,73.61
2019-04-27T06:53:01.729Z,73.33
2019-04-27T06:55:40.668Z,74.34
2019-04-27T06:58:15.597Z,73.67
2019-04-27T07:00:50.588Z,73.30
2019-04-27T07:03:25.531Z,73.72
2019-04-27T07:06:00.677Z,72.58
2019-04-27T07:08:35.637Z,72.53
2019-04-27T07:11:11.538Z,71.53
2019-04-27T07:13:46.697Z,71.52
2019-04-27T07:16:21.893Z,71.95
2019-04-27T07:18:56.843Z,71.24
2019-04-27T07:21:32.581Z,70.72
2019-04-27T07:24:09.015Z,70.70
2019-04-27T07:26:44.931Z,69.60
2019-04-27T07:29:20.019Z,70.44
2019-04-27T07:31:55.091Z,70.22
2019-04-27T07:34:30.535Z,70.32
2019-04-27T07:37:06.463Z,70.82
2019-04-27T07:39:41.629Z,70.00
2019-04-27T07:42:16.993Z,70.26
2019-04-27T07:44:57.521Z,70.11
2019-04-27T07:47:32.749Z,69.17
2019-04-27T07:50:09.592Z,69.82
2019-04-27T07:52:44.694Z,68.43
2019-04-27T07:55:21.050Z,69.96
2019-04-27T07:57:56.199Z,69.25
2019-04-27T08:00:31.311Z,66.96
2019-04-27T08:03:06.516Z,66.89
2019-04-27T08:05:41.710Z,68.30
2019-04-27T08:08:16.725Z,66.09
2019-04-27T08:10:51.846Z,65.67
2019-04-27T08:13:26.993Z,64.94
2019-04-27T08:16:02.167Z,64.83
2019-04-27T08:18:37.264Z,63.08
2019-04-27T08:21:12.422Z,64.05
2019-04-27T08:23:48.965Z,62.60
2019-04-27T08:26:32.927Z,62.88
2019-04-27T08:29:26.811Z,62.51
2019-04-27T08:32:09.599Z,62.45
2019-04-27T08:34:44.516Z,63.50
2019-04-27T08:37:19.483Z,63.30
2019-04-27T08:39:54.553Z,63.54
2019-04-27T08:42:29.617Z,64.89
2019-04-27T08:45:09.405Z,63.51
2019-04-27T08:47:44.613Z,63.76
2019-04-27T08:50:19.664Z,62.56
2019-04-27T08:52:54.695Z,63.61
2019-04-27T08:55:29.710Z,63.33
2019-04-27T08:58:04.869Z,63.53
2019-04-27T09:00:39.894Z,64.25
2019-04-27T09:03:14.845Z,65.24
2019-04-27T09:05:50.619Z,65.51
2019-04-27T09:08:41.326Z,66.14
2019-04-27T09:11:39.230Z,66.95
2019-04-27T09:14:51.587Z,66.77
2019-04-27T09:17:31.341Z,66.60
2019-04-27T09:20:16.248Z,67.94
2019-04-27T09:22:51.300Z,67.75
2019-04-27T09:25:26.319Z,66.00
2019-04-27T09:28:01.389Z,65.36
2019-04-27T09:30:36.787Z,64.93
2019-04-27T09:33:11.938Z,65.38
2019-04-27T09:35:47.742Z,64.67
2019-04-27T09:38:22.821Z,63.62
2019-04-27T09:40:58.095Z,63.39
2019-04-27T09:43:33.791Z,62.96
2019-04-27T09:46:08.791Z,63.81
2019-04-27T09:48:43.979Z,63.31
2019-04-27T09:51:19.287Z,62.84
2019-04-27T09:53:54.228Z,61.86
2019-04-27T09:56:29.289Z,63.65
2019-04-27T09:59:04.231Z,64.96
2019-04-27T10:01:39.212Z,68.31
2019-04-27T10:04:15.679Z,70.64
2019-04-27T10:06:50.933Z,71.84
2019-04-27T10:09:26.421Z,73.09
2019-04-27T10:12:03.560Z,71.76
2019-04-27T10:14:40.723Z,70.42
2019-04-27T10:17:15.712Z,70.17
2019-04-27T10:19:50.760Z,67.30
2019-04-27T10:22:39.903Z,67.36
2019-04-27T10:25:03.164Z,66.79
2019-04-27T10:27:38.152Z,67.99
2019-04-27T10:30:13.609Z,69.18
2019-04-27T10:32:51.141Z,70.98
2019-04-27T10:35:26.183Z,70.43
2019-04-27T10:38:01.288Z,68.98
2019-04-27T10:40:36.480Z,69.75
2019-04-27T10:43:11.721Z,71.07
2019-04-27T10:45:46.935Z,70.96
2019-04-27T10:48:22.631Z,73.30
2019-04-27T10:50:57.623Z,74.49
2019-04-27T10:53:32.940Z,75.31
2019-04-27T10:56:08.106Z,76.63
2019-04-27T10:58:45.595Z,74.48
2019-04-27T11:01:20.663Z,74.72
2019-04-27T11:04:22.853Z,77.11
2019-04-27T11:07:00.902Z,76.86
2019-04-27T11:09:36.139Z,77.24
2019-04-27T11:12:11.422Z,79.45
2019-04-27T11:14:46.395Z,80.80
2019-04-27T11:17:21.649Z,78.63
2019-04-27T11:19:56.659Z,80.76
2019-04-27T11:22:31.869Z,80.20
2019-04-27T11:25:07.212Z,80.36
2019-04-27T11:27:42.294Z,80.95
2019-04-27T11:30:18.837Z,81.71
2019-04-27T11:32:56.793Z,81.77
2019-04-27T11:35:51.244Z,82.90
2019-04-27T11:38:27.540Z,83.66
2019-04-27T11:41:07.643Z,83.85
2019-04-27T11:43:48.799Z,84.52
2019-04-27T11:46:23.886Z,86.16
2019-04-27T11:48:58.888Z,86.04
2019-04-27T11:51:34.142Z,86.86
2019-04-27T11:54:45.657Z,85.36
2019-04-27T11:57:20.765Z,86.08
2019-04-27T11:59:56.286Z,84.77
2019-04-27T12:02:35.796Z,85.11
2019-04-27T12:05:13.439Z,86.09
2019-04-27T12:07:48.731Z,86.69
2019-04-27T12:10:23.893Z,87.18
2019-04-27T12:12:58.884Z,86.25
2019-04-27T12:15:36.102Z,86.28
2019-04-27T12:18:11.141Z,86.37
2019-04-27T12:20:46.202Z,85.97
2019-04-27T12:23:33.093Z,85.39
2019-04-27T12:25:57.990Z,86.68
2019-04-27T12:28:49.447Z,85.81
2019-04-27T12:31:29.480Z,85.72
2019-04-27T12:34:06.115Z,85.60
2019-04-27T12:36:41.162Z,86.08
2019-04-27T12:39:16.520Z,85.70
2019-04-27T12:41:51.915Z,86.42
2019-04-27T12:44:26.950Z,84.88
2019-04-27T12:47:02.567Z,85.62
2019-04-27T12:49:39.331Z,84.28
2019-04-27T12:52:15.922Z,85.17
2019-04-27T12:54:58.308Z,85.77
2019-04-27T12:57:54.897Z,85.73
2019-04-27T13:00:34.359Z,85.57
2019-04-27T13:03:09.595Z,83.31
2019-04-27T13:05:45.494Z,83.85
2019-04-27T13:08:20.467Z,84.14
2019-04-27T13:10:57.285Z,84.56
2019-04-27T13:13:32.442Z,85.19
2019-04-27T13:16:07.543Z,85.13
2019-04-27T13:18:42.787Z,81.69
2019-04-27T13:21:20.792Z,82.30
2019-04-27T13:24:02.037Z,83.08
2019-04-27T13:26:31.511Z,82.49
2019-04-27T13:29:06.839Z,82.13
2019-04-27T13:31:42.184Z,82.72
2019-04-27T13:34:17.233Z,86.02
2019-04-27T13:36:52.515Z,85.81
2019-04-27T13:39:27.557Z,83.14
2019-04-27T13:42:02.753Z,83.13
2019-04-27T13:44:37.754Z,83.02
2019-04-27T13:47:29.530Z,84.18
2019-04-27T13:50:22.204Z,84.87
2019-04-27T13:52:57.534Z,84.59
2019-04-27T13:55:32.759Z,81.96
2019-04-27T13:58:07.720Z,84.88
2019-04-27T14:00:42.943Z,84.69
2019-04-27T14:03:20.881Z,85.34
2019-04-27T14:05:56.759Z,84.69
2019-04-27T14:08:32.678Z,83.01
2019-04-27T14:11:09.584Z,82.62
2019-04-27T14:13:44.469Z,84.30
2019-04-27T14:16:19.511Z,83.84
2019-04-27T14:18:55.738Z,83.86
2019-04-27T14:21:32.893Z,84.82
2019-04-27T14:24:07.598Z,82.92
2019-04-27T14:26:42.869Z,84.08
2019-04-27T14:29:18.950Z,82.28
2019-04-27T14:31:54.066Z,82.35
2019-04-27T14:34:29.058Z,81.96
2019-04-27T14:37:04.440Z,81.35
2019-04-27T14:39:39.423Z,81.41
2019-04-27T14:42:14.453Z,79.46
2019-04-27T14:44:49.547Z,79.95
2019-04-27T14:47:24.545Z,81.49
2019-04-27T14:50:01.025Z,81.51
2019-04-27T14:52:36.226Z,77.81
2019-04-27T14:55:11.780Z,78.77
2019-04-27T14:57:47.062Z,79.81
2019-04-27T15:00:23.640Z,78.50
2019-04-27T15:02:59.174Z,79.05
2019-04-27T15:05:34.568Z,77.70
2019-04-27T15:08:11.477Z,76.63
2019-04-27T15:10:47.018Z,77.16
2019-04-27T15:13:22.288Z,78.54
2019-04-27T15:15:57.358Z,74.34
2019-04-27T15:18:39.905Z,75.31
2019-04-27T15:21:13.454Z,74.58
2019-04-27T15:23:48.528Z,74.64
2019-04-27T15:26:23.754Z,76.20
2019-04-27T15:29:00.896Z,75.55
2019-04-27T15:31:40.831Z,75.09
2019-04-27T15:34:28.893Z,71.69
2019-04-27T15:37:22.103Z,69.56
2019-04-27T15:40:28.958Z,69.14
2019-04-27T15:43:13.185Z,68.51
2019-04-27T15:45:48.688Z,64.87
2019-04-27T15:48:25.110Z,63.27
2019-04-27T15:51:04.774Z,67.05
2019-04-27T15:53:41.610Z,61.43
2019-04-27T15:56:18.011Z,63.20
2019-04-27T15:58:55.802Z,60.64
2019-04-27T16:01:35.900Z,63.14
2019-04-27T16:04:11.026Z,63.28
2019-04-27T16:06:47.638Z,59.18
2019-04-27T16:09:25.381Z,58.90
2019-04-27T16:12:09.663Z,56.97
2019-04-27T16:14:36.428Z,54.99
2019-04-27T16:17:12.324Z,54.87
2019-04-27T16:19:50.241Z,57.81
2019-04-27T16:22:26.844Z,59.11
2019-04-27T16:25:03.825Z,58.18
2019-04-27T16:27:38.714Z,61.64
2019-04-27T16:30:18.031Z,65.91
2019-04-27T16:32:51.852Z,62.49
2019-04-27T16:35:28.260Z,64.30
2019-04-27T16:38:40.272Z,63.88
2019-04-27T16:41:16.223Z,63.60
2019-04-27T16:43:51.315Z,65.34
2019-04-27T16:46:28.489Z,64.07
2019-04-27T16:49:13.755Z,64.12
2019-04-27T16:51:46.029Z,63.98
2019-04-27T16:54:21.533Z,65.26
2019-04-27T16:57:03.318Z,70.37
2019-04-27T16:59:43.296Z,72.54
2019-04-27T17:02:11.282Z,73.41
2019-04-27T17:04:54.186Z,75.66
2019-04-27T17:07:24.288Z,76.79
2019-04-27T17:09:59.578Z,76.40
2019-04-27T17:12:41.216Z,77.47
2019-04-27T17:15:30.063Z,73.51
2019-04-27T17:18:35.932Z,71.30
2019-04-27T17:21:18.572Z,69.77
2019-04-27T17:23:48.206Z,68.70
2019-04-27T17:26:24.239Z,70.23
2019-04-27T17:29:16.038Z,70.56
2019-04-27T17:31:50.637Z,69.91
2019-04-27T17:34:26.420Z,70.72
2019-04-27T17:37:02.150Z,73.40
2019-04-27T17:39:38.738Z,74.01
2019-04-27T17:42:13.979Z,74.30
2019-04-27T17:44:53.015Z,71.16
2019-04-27T17:47:29.791Z,73.71
2019-04-27T17:50:04.286Z,73.92
2019-04-27T17:52:40.793Z,73.96
2019-04-27T17:55:17.849Z,74.15
2019-04-27T17:57:52.789Z,75.31
2019-04-27T18:00:28.308Z,75.62
2019-04-27T18:03:03.526Z,75.88
2019-04-27T18:05:43.697Z,76.32
2019-04-27T18:08:24.568Z,77.78
2019-04-27T18:11:00.627Z,78.68
2019-04-27T18:13:32.686Z,81.65
2019-04-27T18:16:09.151Z,81.82
2019-04-27T18:19:15.545Z,81.75
2019-04-27T18:22:01.272Z,82.58
2019-04-27T18:25:06.218Z,83.11
2019-04-27T18:27:51.764Z,82.06
2019-04-27T18:30:40.456Z,82.20
2019-04-27T18:33:14.556Z,83.55
2019-04-27T18:35:49.794Z,82.94
2019-04-27T18:38:24.779Z,82.94
2019-04-27T18:41:02.948Z,82.72
2019-04-27T18:43:38.890Z,82.35
2019-04-27T18:46:14.771Z,83.18
2019-04-27T18:49:11.268Z,82.66
2019-04-27T18:52:06.139Z,82.71
2019-04-27T18:54:42.153Z,82.41
2019-04-27T18:57:17.491Z,81.67
2019-04-27T18:59:52.674Z,82.75
2019-04-27T19:02:29.382Z,82.29
2019-04-27T19:05:04.504Z,82.09
2019-04-27T19:07:41.392Z,82.19
2019-04-27T19:10:16.441Z,82.65
2019-04-27T19:12:51.957Z,83.17
2019-04-27T19:15:28.584Z,82.88
2019-04-27T19:18:04.091Z,81.92
2019-04-27T19:20:39.165Z,82.19
2019-04-27T19:23:14.193Z,82.37
2019-04-27T19:26:23.973Z,82.41
2019-04-27T19:29:05.850Z,82.60
2019-04-27T19:31:45.643Z,82.28
2019-04-27T19:34:20.740Z,82.66
2019-04-27T19:36:55.738Z,82.74
2019-04-27T19:39:30.870Z,83.46
2019-04-27T19:42:05.989Z,83.20
2019-04-27T19:44:41.111Z,83.33
2019-04-27T19:47:16.086Z,82.86
2019-04-27T19:49:51.389Z,82.29
2019-04-27T19:52:27.771Z,83.18
2019-04-27T19:55:05.980Z,83.55
2019-04-27T19:57:42.107Z,83.47
2019-04-27T20:00:35.338Z,83.51
2019-04-27T20:03:12.021Z,83.12
2019-04-27T20:05:47.066Z,83.04
2019-04-27T20:08:24.693Z,83.32
2019-04-27T20:11:02.131Z,83.53
2019-04-27T20:13:37.216Z,83.56
2019-04-27T20:16:12.553Z,83.54
2019-04-27T20:18:47.557Z,83.37
2019-04-27T20:21:22.712Z,83.95
2019-04-27T20:23:57.755Z,83.83
2019-04-27T20:26:33.037Z,83.33
2019-04-27T20:29:08.175Z,83.42
2019-04-27T20:31:43.379Z,83.47
2019-04-27T20:34:18.396Z,83.78
2019-04-27T20:36:53.544Z,83.58
2019-04-27T20:39:28.535Z,83.60
2019-04-27T20:42:03.713Z,83.82
2019-04-27T20:44:38.796Z,83.97
2019-04-27T20:47:13.857Z,83.84
2019-04-27T20:49:48.920Z,83.90
2019-04-27T20:52:37.603Z,83.75
2019-04-27T20:55:13.516Z,83.73
2019-04-27T20:57:58.702Z,83.43
2019-04-27T21:00:25.232Z,83.75
2019-04-27T21:03:08.889Z,83.88
2019-04-27T21:06:11.982Z,84.36
2019-04-27T21:08:46.933Z,84.41
2019-04-27T21:11:22.016Z,84.50
2019-04-27T21:13:57.250Z,84.50
2019-04-27T21:16:33.069Z,84.49
2019-04-27T21:19:08.116Z,84.12
2019-04-27T21:21:43.405Z,84.10
2019-04-27T21:24:18.368Z,84.18
2019-04-27T21:26:54.273Z,84.00
2019-04-27T21:29:31.022Z,83.88
2019-04-27T21:32:07.940Z,83.85
2019-04-27T21:34:43.222Z,83.90
2019-04-27T21:37:18.211Z,84.37
2019-04-27T21:40:14.242Z,83.97
2019-04-27T21:42:51.138Z,83.86
2019-04-27T21:45:26.221Z,84.02
2019-04-27T21:48:01.321Z,84.23
2019-04-27T21:50:36.296Z,84.29
2019-04-27T21:53:35.534Z,84.31
2019-04-27T21:56:11.372Z,83.96
2019-04-27T21:58:46.305Z,83.85
2019-04-27T22:01:27.247Z,84.07
2019-04-27T22:04:03.464Z,84.26
2019-04-27T22:06:38.684Z,84.00
2019-04-27T22:09:15.899Z,83.61
2019-04-27T22:11:51.173Z,83.68
2019-04-27T22:14:26.179Z,83.61
2019-04-27T22:17:01.388Z,83.90
2019-04-27T22:19:36.368Z,83.91
2019-04-27T22:22:21.160Z,83.56
2019-04-27T22:25:05.967Z,83.84
2019-04-27T22:27:41.465Z,83.93
2019-04-27T22:30:16.837Z,83.99
2019-04-27T22:32:52.207Z,84.00
2019-04-27T22:35:27.209Z,83.92
2019-04-27T22:38:03.503Z,83.75
2019-04-27T22:40:58.463Z,83.71
2019-04-27T22:43:44.643Z,83.83
2019-04-27T22:46:21.803Z,83.81
2019-04-27T22:48:56.840Z,83.69
2019-04-27T22:51:32.181Z,83.82
2019-04-27T22:54:07.157Z,83.57
2019-04-27T22:56:43.543Z,83.33
2019-04-27T22:59:23.961Z,82.85
2019-04-27T23:02:21.752Z,83.43
2019-04-27T23:05:01.902Z,83.04
2019-04-27T23:07:37.027Z,82.35
2019-04-27T23:10:12.267Z,82.28
2019-04-27T23:12:47.606Z,82.39
2019-04-27T23:15:25.237Z,82.46
2019-04-27T23:18:00.224Z,82.78
2019-04-27T23:20:35.304Z,82.55
2019-04-27T23:23:11.360Z,82.17
2019-04-27T23:25:46.404Z,82.43
2019-04-27T23:28:21.485Z,82.41
2019-04-27T23:31:12.124Z,82.44
2019-04-27T23:33:48.550Z,82.68
2019-04-27T23:36:23.600Z,83.01
2019-04-27T23:38:58.687Z,82.98
2019-04-27T23:41:34.321Z,82.67
2019-04-27T23:44:09.283Z,82.78
2019-04-27T23:46:44.290Z,82.95
2019-04-27T23:49:20.597Z,82.84
2019-04-27T23:52:00.767Z,82.86
2019-04-27T23:54:35.778Z,82.71
2019-04-27T23:57:11.763Z,83.07
2019-04-27T23:59:46.794Z,82.90
